createdAt,value
2022-08-08T00:00:53.599Z,48.60
2022-08-08T00:03:20.333Z,48.50
2022-08-08T00:06:07.754Z,48.60
2022-08-08T00:08:50.753Z,48.60
2022-08-08T00:11:25.553Z,48.80
2022-08-08T00:14:58.657Z,48.90
2022-08-08T00:18:02.079Z,48.90
2022-08-08T00:20:36.203Z,49.20
2022-08-08T00:23:10.307Z,49.10
2022-08-08T00:25:51.247Z,49.20
2022-08-08T00:28:35.725Z,49.20
2022-08-08T00:32:28.966Z,49.30
2022-08-08T00:34:50.282Z,49.30
2022-08-08T00:37:48.015Z,49.60
2022-08-08T00:41:10.329Z,49.60
2022-08-08T00:43:56.332Z,49.70
2022-08-08T00:46:57.120Z,50.10
2022-08-08T00:49:32.230Z,50.00
2022-08-08T00:52:24.917Z,50.00
2022-08-08T00:55:53.350Z,50.00
2022-08-08T00:58:38.766Z,50.20
2022-08-08T01:01:29.490Z,50.40
2022-08-08T01:04:51.325Z,50.40
2022-08-08T01:07:56.147Z,50.80
2022-08-08T01:10:25.413Z,50.70
2022-08-08T01:12:59.682Z,50.90
2022-08-08T01:15:44.190Z,50.90
2022-08-08T01:18:54.889Z,50.80
2022-08-08T01:22:07.516Z,51.20
2022-08-08T01:24:40.242Z,50.90
2022-08-08T01:27:33.293Z,51.30
2022-08-08T01:30:53.758Z,51.40
2022-08-08T01:33:54.141Z,51.60
2022-08-08T01:37:06.729Z,51.70
2022-08-08T01:39:55.608Z,52.10
2022-08-08T01:42:36.755Z,52.10
2022-08-08T01:45:42.402Z,52.20
2022-08-08T01:48:31.063Z,52.30
2022-08-08T01:51:30.594Z,52.40
2022-08-08T01:55:26.006Z,52.60
2022-08-08T01:57:58.688Z,52.70
2022-08-08T02:00:34.745Z,52.80
2022-08-08T02:03:56.747Z,53.40
2022-08-08T02:06:43.341Z,53.50
2022-08-08T02:10:01.868Z,53.40
2022-08-08T02:12:29.723Z,53.80
2022-08-08T02:15:21.533Z,53.60
2022-08-08T02:17:58.619Z,53.90
2022-08-08T02:21:08.914Z,53.50
2022-08-08T02:23:50.995Z,53.90
2022-08-08T02:26:26.766Z,53.80
2022-08-08T02:29:05.526Z,53.90
2022-08-08T02:31:59.654Z,54.10
2022-08-08T02:35:11.156Z,55.40
2022-08-08T02:37:58.266Z,55.50
2022-08-08T02:40:52.579Z,55.80
2022-08-08T02:44:34.874Z,56.40
2022-08-08T02:47:00.733Z,57.00
2022-08-08T02:49:57.610Z,57.10
2022-08-08T02:52:38.346Z,57.40
2022-08-08T02:55:20.685Z,57.60
2022-08-08T02:58:39.481Z,57.90
2022-08-08T03:01:50.241Z,58.10
2022-08-08T03:05:05.205Z,58.30
2022-08-08T03:08:12.456Z,58.40
2022-08-08T03:11:05.013Z,58.60
2022-08-08T03:15:59.702Z,58.60
2022-08-08T03:17:04.873Z,59.00
2022-08-08T03:19:51.384Z,59.20
2022-08-08T03:22:38.484Z,59.50
2022-08-08T03:25:09.252Z,59.80
2022-08-08T03:27:48.544Z,59.50
2022-08-08T03:30:23.477Z,59.70
2022-08-08T03:33:54.855Z,60.30
2022-08-08T03:35:57.576Z,59.80
2022-08-08T03:38:57.151Z,59.90
2022-08-08T03:42:12.095Z,59.60
2022-08-08T03:43:59.504Z,59.80
2022-08-08T03:46:32.563Z,59.80
2022-08-08T03:49:15.294Z,60.00
2022-08-08T03:51:53.348Z,59.90
2022-08-08T03:54:51.780Z,60.20
2022-08-08T03:58:09.544Z,60.00
2022-08-08T04:00:11.605Z,60.00
2022-08-08T04:02:47.703Z,60.40
2022-08-08T04:05:22.830Z,60.20
2022-08-08T04:07:57.808Z,60.00
2022-08-08T04:10:25.702Z,60.20
2022-08-08T04:12:59.742Z,60.20
2022-08-08T04:15:30.319Z,60.40
2022-08-08T04:18:05.334Z,60.80
2022-08-08T04:20:32.498Z,61.80
2022-08-08T04:22:59.683Z,62.50
2022-08-08T04:25:32.934Z,62.50
2022-08-08T04:28:36.137Z,62.00
2022-08-08T04:30:55.233Z,61.80
2022-08-08T04:33:24.222Z,60.40
2022-08-08T04:35:53.801Z,60.30
2022-08-08T04:38:23.075Z,59.90
2022-08-08T04:40:54.730Z,59.90
2022-08-08T04:43:31.755Z,59.50
2022-08-08T04:46:14.699Z,59.50
2022-08-08T04:48:41.674Z,59.00
2022-08-08T04:51:09.349Z,59.60
2022-08-08T04:54:27.325Z,59.20
2022-08-08T04:56:22.959Z,59.40
2022-08-08T04:58:50.668Z,59.00
2022-08-08T05:01:18.180Z,59.20
2022-08-08T05:04:08.488Z,59.90
2022-08-08T05:06:39.260Z,59.10
2022-08-08T05:09:06.299Z,59.00
2022-08-08T05:11:39.524Z,58.90
2022-08-08T05:14:08.174Z,58.90
2022-08-08T05:16:54.431Z,59.10
2022-08-08T05:20:09.998Z,58.70
2022-08-08T05:22:11.277Z,58.90
2022-08-08T05:24:40.599Z,58.90
2022-08-08T05:27:07.668Z,59.00
2022-08-08T05:29:37.165Z,58.80
2022-08-08T05:32:15.719Z,58.70
2022-08-08T05:34:55.896Z,58.50
2022-08-08T05:37:49.011Z,58.80
2022-08-08T05:40:17.676Z,58.50
2022-08-08T05:42:54.197Z,58.50
2022-08-08T05:45:25.475Z,58.40
2022-08-08T05:48:00.613Z,58.20
2022-08-08T05:50:38.717Z,57.80
2022-08-08T05:53:53.584Z,57.50
2022-08-08T05:56:07.862Z,57.20
2022-08-08T05:58:53.619Z,56.90
2022-08-08T06:01:55.786Z,56.90
2022-08-08T06:04:23.041Z,56.70
2022-08-08T06:06:56.597Z,56.60
2022-08-08T06:10:00.214Z,56.50
2022-08-08T06:12:29.510Z,56.40
2022-08-08T06:15:00.954Z,56.40
2022-08-08T06:17:51.103Z,56.10
2022-08-08T06:20:21.308Z,56.10
2022-08-08T06:22:49.436Z,56.00
2022-08-08T06:25:17.973Z,56.00
2022-08-08T06:27:53.857Z,56.00
2022-08-08T06:30:28.211Z,56.00
2022-08-08T06:32:58.180Z,56.00
2022-08-08T06:36:07.566Z,55.80
2022-08-08T06:38:28.969Z,56.00
2022-08-08T06:41:07.485Z,55.70
2022-08-08T06:43:37.088Z,55.70
2022-08-08T06:46:09.273Z,55.30
2022-08-08T06:48:39.531Z,55.30
2022-08-08T06:51:14.044Z,55.30
2022-08-08T06:53:51.058Z,55.30
2022-08-08T06:56:24.483Z,55.20
2022-08-08T06:58:53.063Z,54.50
2022-08-08T07:02:27.185Z,54.50
2022-08-08T07:04:37.314Z,54.80
2022-08-08T07:07:18.732Z,53.80
2022-08-08T07:10:08.031Z,53.60
2022-08-08T07:12:47.507Z,53.40
2022-08-08T07:15:32.200Z,53.60
2022-08-08T07:18:35.852Z,53.80
2022-08-08T07:21:04.993Z,53.60
2022-08-08T07:24:09.608Z,53.10
2022-08-08T07:26:39.968Z,53.30
2022-08-08T07:29:20.172Z,53.30
2022-08-08T07:31:58.298Z,53.10
2022-08-08T07:34:32.027Z,52.60
2022-08-08T07:37:00.182Z,52.30
2022-08-08T07:39:56.146Z,52.50
2022-08-08T07:42:18.753Z,52.20
2022-08-08T07:44:47.915Z,52.10
2022-08-08T07:47:29.054Z,51.90
2022-08-08T07:50:06.939Z,51.70
2022-08-08T07:52:37.745Z,51.50
2022-08-08T07:55:21.308Z,51.30
2022-08-08T07:58:12.930Z,51.20
2022-08-08T08:00:48.597Z,51.00
2022-08-08T08:03:43.348Z,51.20
2022-08-08T08:06:14.227Z,51.20
2022-08-08T08:08:52.149Z,51.00
2022-08-08T08:11:21.472Z,50.90
2022-08-08T08:14:08.284Z,50.70
2022-08-08T08:16:41.874Z,50.50
2022-08-08T08:19:19.723Z,50.20
2022-08-08T08:21:58.283Z,50.10
2022-08-08T08:24:32.087Z,50.40
2022-08-08T08:27:02.565Z,50.40
2022-08-08T08:29:33.066Z,50.00
2022-08-08T08:32:06.114Z,49.70
2022-08-08T08:34:37.386Z,49.60
2022-08-08T08:37:15.568Z,49.30
2022-08-08T08:40:01.420Z,49.20
2022-08-08T08:42:36.235Z,48.70
2022-08-08T08:45:21.299Z,48.40
2022-08-08T08:47:53.547Z,48.60
2022-08-08T08:50:32.978Z,48.80
2022-08-08T08:53:54.890Z,48.70
2022-08-08T08:56:01.466Z,48.30
2022-08-08T08:58:50.560Z,48.30
2022-08-08T09:01:23.867Z,48.30
2022-08-08T09:03:51.662Z,48.40
2022-08-08T09:06:26.651Z,48.50
2022-08-08T09:09:25.849Z,48.40
2022-08-08T09:12:01.373Z,48.30
2022-08-08T09:14:30.513Z,48.20
2022-08-08T09:16:57.308Z,47.70
2022-08-08T09:21:59.244Z,47.90
2022-08-08T09:22:19.476Z,47.60
2022-08-08T09:24:54.670Z,47.70
2022-08-08T09:27:56.844Z,47.80
2022-08-08T09:30:17.492Z,47.50
2022-08-08T09:33:12.678Z,47.50
2022-08-08T09:35:48.908Z,47.80
2022-08-08T09:38:30.347Z,47.80
2022-08-08T09:41:05.068Z,47.70
2022-08-08T09:44:04.651Z,47.80
2022-08-08T09:46:30.701Z,47.90
2022-08-08T09:49:18.045Z,47.80
2022-08-08T09:52:07.400Z,47.80
2022-08-08T09:54:43.973Z,47.70
2022-08-08T09:57:16.587Z,48.00
2022-08-08T10:00:02.173Z,48.00
2022-08-08T10:02:48.811Z,47.90
2022-08-08T10:05:25.757Z,47.40
2022-08-08T10:08:00.372Z,47.30
2022-08-08T10:10:32.889Z,47.20
2022-08-08T10:13:13.951Z,47.20
2022-08-08T10:15:59.338Z,46.60
2022-08-08T10:18:39.553Z,46.80
2022-08-08T10:21:25.760Z,47.40
2022-08-08T10:24:02.811Z,47.20
2022-08-08T10:26:56.842Z,47.10
2022-08-08T10:30:03.967Z,46.90
2022-08-08T10:32:34.120Z,46.60
2022-08-08T10:35:04.554Z,46.50
2022-08-08T10:37:42.021Z,46.50
2022-08-08T10:40:16.305Z,46.00
2022-08-08T10:42:44.903Z,45.90
2022-08-08T10:45:15.738Z,45.90
2022-08-08T10:47:48.263Z,45.80
2022-08-08T10:50:23.606Z,45.90
2022-08-08T10:53:04.738Z,45.60
2022-08-08T10:55:40.781Z,45.50
2022-08-08T10:58:15.708Z,45.40
2022-08-08T11:00:53.281Z,44.60
2022-08-08T11:04:00.425Z,45.10
2022-08-08T11:06:35.169Z,45.70
2022-08-08T11:09:09.580Z,45.20
2022-08-08T11:12:06.158Z,44.10
2022-08-08T11:14:33.480Z,43.80
2022-08-08T11:17:02.987Z,44.00
2022-08-08T11:19:36.238Z,43.70
2022-08-08T11:22:07.674Z,43.20
2022-08-08T11:24:37.846Z,41.90
2022-08-08T11:27:19.133Z,41.10
2022-08-08T11:30:19.512Z,42.90
2022-08-08T11:32:40.934Z,43.20
2022-08-08T11:35:27.352Z,42.70
2022-08-08T11:38:35.386Z,41.80
2022-08-08T11:40:51.703Z,42.10
2022-08-08T11:43:24.514Z,41.90
2022-08-08T11:46:13.720Z,42.10
2022-08-08T11:48:44.959Z,41.50
2022-08-08T11:51:29.628Z,40.70
2022-08-08T11:54:01.899Z,40.20
2022-08-08T11:56:42.246Z,40.10
2022-08-08T11:59:12.597Z,40.10
2022-08-08T12:01:39.853Z,40.00
2022-08-08T12:04:12.153Z,39.30
2022-08-08T12:06:44.717Z,40.90
2022-08-08T12:09:17.220Z,40.40
2022-08-08T12:11:49.474Z,40.40
2022-08-08T12:14:29.279Z,40.20
2022-08-08T12:16:57.266Z,39.70
2022-08-08T12:19:37.495Z,40.50
2022-08-08T12:22:20.983Z,40.50
2022-08-08T12:24:53.692Z,39.50
2022-08-08T12:27:26.973Z,39.80
2022-08-08T12:30:03.068Z,40.00
2022-08-08T12:32:44.744Z,40.50
2022-08-08T12:35:22.600Z,39.90
2022-08-08T12:38:09.151Z,39.40
2022-08-08T12:40:56.070Z,40.40
2022-08-08T12:43:47.521Z,41.00
2022-08-08T12:46:26.630Z,40.80
2022-08-08T12:51:58.353Z,40.50
2022-08-08T12:54:29.505Z,40.60
2022-08-08T12:56:56.315Z,40.20
2022-08-08T12:59:44.577Z,40.20
2022-08-08T13:02:28.618Z,39.60
2022-08-08T13:05:06.057Z,40.00
2022-08-08T13:08:04.391Z,39.70
2022-08-08T13:10:32.986Z,38.50
2022-08-08T13:13:05.937Z,38.70
2022-08-08T13:15:35.905Z,39.40
2022-08-08T13:18:11.099Z,39.00
2022-08-08T13:20:48.325Z,38.90
2022-08-08T13:23:36.128Z,38.60
2022-08-08T13:26:14.961Z,38.80
2022-08-08T13:28:45.491Z,38.10
2022-08-08T13:31:17.127Z,38.60
2022-08-08T13:33:50.227Z,38.60
2022-08-08T13:36:26.123Z,38.70
2022-08-08T13:38:53.805Z,38.30
2022-08-08T13:41:23.619Z,38.90
2022-08-08T13:43:55.332Z,38.80
2022-08-08T13:46:28.984Z,39.00
2022-08-08T13:49:11.964Z,38.60
2022-08-08T13:52:05.422Z,38.60
2022-08-08T13:54:44.131Z,38.80
2022-08-08T13:57:16.231Z,39.00
2022-08-08T13:59:51.796Z,39.00
2022-08-08T14:02:33.080Z,39.10
2022-08-08T14:05:20.064Z,39.00
2022-08-08T14:07:52.038Z,38.40
2022-08-08T14:10:32.721Z,38.70
2022-08-08T14:13:31.277Z,39.00
2022-08-08T14:16:04.407Z,38.70
2022-08-08T14:18:36.841Z,38.20
2022-08-08T14:21:20.550Z,37.90
2022-08-08T14:24:04.111Z,38.60
2022-08-08T14:26:42.961Z,38.60
2022-08-08T14:29:29.036Z,38.50
2022-08-08T14:32:10.966Z,38.10
2022-08-08T14:34:42.901Z,37.30
2022-08-08T14:37:17.526Z,38.30
2022-08-08T14:39:53.852Z,38.70
2022-08-08T14:42:54.529Z,38.30
2022-08-08T14:45:29.333Z,38.90
2022-08-08T14:48:12.485Z,38.40
2022-08-08T14:50:43.525Z,38.60
2022-08-08T14:53:15.635Z,39.00
2022-08-08T14:55:42.968Z,39.60
2022-08-08T14:58:16.067Z,39.80
2022-08-08T15:00:48.164Z,39.60
2022-08-08T15:03:17.400Z,39.20
2022-08-08T15:05:54.141Z,39.60
2022-08-08T15:08:34.433Z,39.30
2022-08-08T15:11:06.752Z,39.00
2022-08-08T15:13:40.303Z,38.90
2022-08-08T15:16:12.072Z,38.70
2022-08-08T15:18:50.001Z,38.50
2022-08-08T15:21:19.582Z,38.50
2022-08-08T15:23:52.020Z,38.60
2022-08-08T15:26:25.816Z,37.90
2022-08-08T15:28:57.813Z,38.60
2022-08-08T15:32:03.140Z,38.60
2022-08-08T15:34:18.565Z,38.60
2022-08-08T15:36:58.384Z,37.70
2022-08-08T15:39:27.505Z,37.20
2022-08-08T15:41:55.358Z,36.40
2022-08-08T15:44:22.247Z,35.80
2022-08-08T15:46:50.432Z,35.60
2022-08-08T15:49:21.211Z,35.20
2022-08-08T15:51:50.409Z,34.40
2022-08-08T15:54:38.445Z,33.60
2022-08-08T15:57:09.011Z,33.10
2022-08-08T16:00:06.437Z,32.90
2022-08-08T16:02:30.570Z,32.50
2022-08-08T16:05:00.655Z,32.50
2022-08-08T16:07:50.859Z,32.20
2022-08-08T16:13:04.199Z,32.30
2022-08-08T16:13:29.292Z,32.30
2022-08-08T16:15:57.706Z,31.70
2022-08-08T16:18:32.078Z,32.40
2022-08-08T16:21:01.376Z,32.20
2022-08-08T16:23:32.223Z,32.10
2022-08-08T16:26:12.807Z,32.10
2022-08-08T16:28:44.571Z,32.70
2022-08-08T16:31:12.910Z,32.70
2022-08-08T16:33:40.145Z,33.50
2022-08-08T16:36:15.596Z,33.80
2022-08-08T16:38:47.549Z,33.60
2022-08-08T16:41:22.499Z,33.90
2022-08-08T16:43:51.636Z,34.50
2022-08-08T16:46:36.445Z,34.30
2022-08-08T16:49:04.999Z,34.40
2022-08-08T16:55:05.144Z,34.90
2022-08-08T16:55:22.927Z,34.60
2022-08-08T16:57:22.979Z,34.40
2022-08-08T16:59:54.609Z,35.30
2022-08-08T17:02:32.952Z,34.70
2022-08-08T17:05:06.999Z,34.50
2022-08-08T17:07:33.767Z,35.20
2022-08-08T17:10:07.465Z,35.50
2022-08-08T17:12:36.977Z,35.10
2022-08-08T17:15:17.702Z,35.20
2022-08-08T17:18:02.073Z,35.60
2022-08-08T17:20:32.259Z,35.80
2022-08-08T17:23:17.587Z,35.80
2022-08-08T17:25:52.269Z,35.50
2022-08-08T17:28:34.216Z,35.50
2022-08-08T17:31:39.047Z,35.60
2022-08-08T17:34:48.095Z,36.00
2022-08-08T17:37:01.148Z,36.10
2022-08-08T17:40:04.452Z,36.70
2022-08-08T17:42:18.451Z,36.80
2022-08-08T17:44:49.707Z,36.60
2022-08-08T17:47:27.416Z,37.10
2022-08-08T17:50:01.476Z,36.80
2022-08-08T17:52:35.613Z,37.30
2022-08-08T17:56:03.870Z,37.70
2022-08-08T17:57:52.489Z,37.90
2022-08-08T18:00:25.955Z,38.00
2022-08-08T18:03:08.552Z,38.10
2022-08-08T18:05:48.530Z,37.70
2022-08-08T18:08:25.186Z,38.10
2022-08-08T18:11:17.414Z,38.30
2022-08-08T18:13:47.822Z,38.70
2022-08-08T18:16:20.174Z,38.70
2022-08-08T18:18:57.609Z,38.60
2022-08-08T18:22:00.430Z,38.80
2022-08-08T18:24:17.562Z,39.00
2022-08-08T18:26:55.042Z,39.40
2022-08-08T18:29:33.153Z,39.60
2022-08-08T18:32:07.392Z,39.80
2022-08-08T18:34:36.280Z,39.90
2022-08-08T18:37:06.660Z,40.20
2022-08-08T18:39:37.126Z,40.20
2022-08-08T18:42:09.133Z,40.40
2022-08-08T18:44:41.870Z,40.30
2022-08-08T18:47:08.652Z,40.40
2022-08-08T18:49:54.764Z,40.70
2022-08-08T18:52:25.682Z,41.00
2022-08-08T18:54:59.162Z,40.80
2022-08-08T18:57:30.495Z,41.00
2022-08-08T19:00:00.654Z,41.10
2022-08-08T19:02:29.932Z,41.20
2022-08-08T19:04:56.978Z,41.60
2022-08-08T19:07:30.015Z,41.40
2022-08-08T19:10:14.422Z,41.40
2022-08-08T19:12:44.498Z,41.60
2022-08-08T19:15:16.457Z,41.70
2022-08-08T19:18:31.103Z,41.70
2022-08-08T19:20:39.244Z,41.60
2022-08-08T19:23:07.730Z,41.50
2022-08-08T19:26:01.849Z,41.70
2022-08-08T19:28:25.045Z,41.90
2022-08-08T19:31:04.358Z,41.90
2022-08-08T19:33:51.553Z,41.70
2022-08-08T19:36:27.658Z,41.70
2022-08-08T19:38:58.887Z,41.70
2022-08-08T19:41:30.704Z,41.60
2022-08-08T19:44:13.082Z,42.00
2022-08-08T19:46:49.696Z,42.10
2022-08-08T19:49:16.639Z,42.10
2022-08-08T19:51:45.717Z,41.90
2022-08-08T19:54:15.826Z,42.10
2022-08-08T19:56:48.974Z,41.90
2022-08-08T19:59:18.798Z,42.00
2022-08-08T20:02:01.087Z,42.10
2022-08-08T20:04:29.335Z,42.30
2022-08-08T20:07:05.516Z,42.10
2022-08-08T20:09:56.326Z,42.10
2022-08-08T20:12:32.773Z,42.80
2022-08-08T20:15:14.656Z,42.40
2022-08-08T20:17:46.585Z,42.60
2022-08-08T20:20:19.176Z,42.60
2022-08-08T20:22:48.942Z,42.60
2022-08-08T20:25:24.637Z,42.90
2022-08-08T20:27:54.056Z,42.90
2022-08-08T20:30:53.238Z,42.90
2022-08-08T20:33:19.747Z,43.00
2022-08-08T20:35:58.446Z,43.10
2022-08-08T20:38:32.099Z,43.30
2022-08-08T20:40:59.390Z,43.30
2022-08-08T20:43:43.602Z,43.50
2022-08-08T20:46:12.949Z,43.50
2022-08-08T20:48:39.840Z,43.40
2022-08-08T20:51:08.055Z,43.40
2022-08-08T20:54:00.590Z,43.80
2022-08-08T20:56:35.273Z,43.90
2022-08-08T20:59:09.218Z,43.90
2022-08-08T21:01:44.209Z,43.80
2022-08-08T21:04:14.374Z,44.00
2022-08-08T21:06:52.898Z,44.00
2022-08-08T21:09:21.707Z,44.10
2022-08-08T21:11:51.568Z,44.20
2022-08-08T21:14:30.504Z,43.80
2022-08-08T21:17:01.266Z,44.00
2022-08-08T21:19:33.867Z,44.00
2022-08-08T21:22:03.298Z,44.00
2022-08-08T21:24:34.804Z,44.00
2022-08-08T21:27:04.717Z,44.30
2022-08-08T21:30:04.591Z,44.20
2022-08-08T21:32:24.911Z,44.30
2022-08-08T21:34:51.908Z,44.50
2022-08-08T21:37:54.123Z,44.50
2022-08-08T21:40:11.582Z,44.70
2022-08-08T21:42:44.737Z,45.00
2022-08-08T21:45:44.332Z,45.10
2022-08-08T21:48:12.956Z,45.20
2022-08-08T21:50:54.257Z,45.30
2022-08-08T21:54:27.496Z,45.50
2022-08-08T21:56:19.820Z,45.50
2022-08-08T21:58:59.550Z,45.60
2022-08-08T22:01:40.490Z,45.80
2022-08-08T22:04:10.455Z,45.80
2022-08-08T22:06:41.994Z,46.10
2022-08-08T22:09:09.554Z,46.10
2022-08-08T22:12:02.742Z,46.10
2022-08-08T22:14:26.516Z,46.40
2022-08-08T22:16:54.227Z,46.70
2022-08-08T22:19:24.063Z,46.60
2022-08-08T22:21:52.899Z,46.80
2022-08-08T22:24:23.873Z,46.90
2022-08-08T22:27:01.514Z,46.90
2022-08-08T22:29:59.736Z,47.10
2022-08-08T22:32:21.484Z,47.10
2022-08-08T22:34:50.716Z,47.30
2022-08-08T22:37:49.625Z,47.30
2022-08-08T22:40:11.643Z,47.40
2022-08-08T22:42:40.245Z,47.50
2022-08-08T22:45:12.988Z,47.50
2022-08-08T22:47:48.995Z,47.50
2022-08-08T22:50:26.391Z,47.60
2022-08-08T22:54:15.832Z,47.40
2022-08-08T22:55:59.787Z,47.70
2022-08-08T22:58:34.627Z,47.80
2022-08-08T23:01:30.142Z,47.80
2022-08-08T23:03:58.924Z,47.90
2022-08-08T23:06:28.243Z,47.80
2022-08-08T23:08:58.589Z,47.80
2022-08-08T23:12:29.043Z,48.20
2022-08-08T23:14:19.182Z,47.90
2022-08-08T23:16:54.755Z,48.00
2022-08-08T23:19:31.079Z,48.10
2022-08-08T23:21:58.933Z,48.10
2022-08-08T23:24:26.164Z,48.10
2022-08-08T23:27:02.965Z,48.10
2022-08-08T23:29:31.294Z,48.30
2022-08-08T23:31:58.557Z,48.40
2022-08-08T23:34:29.416Z,48.50
2022-08-08T23:36:58.430Z,48.60
2022-08-08T23:39:32.018Z,49.20
2022-08-08T23:42:08.971Z,48.60
2022-08-08T23:44:39.345Z,48.90
2022-08-08T23:49:00.210Z,48.90
2022-08-08T23:50:02.835Z,49.10
2022-08-08T23:52:30.732Z,49.00
2022-08-08T23:55:07.645Z,49.20
2022-08-08T23:57:52.703Z,49.00
